Silvania, Brazil
Current Conditions -  °F | °C
As of 11:00 PM on Monday 22 Dec 2014 (Local Time) from SBGO Reporting Station
Thunderstorm Thunderstorm  
Wind Chill: 72°   Ceiling: Unl
Heat Index: 72°   Visibility: 6mi
Dew Point: 66°   Wind: 7mph
Humidity: 83%   Direction: 360°N
Pressure: 30.03"   Gusts: NA
Location:  16.66°S, 48.61°W
Report Text: SBGO 230100Z 36006KT 9999 -RA VCTS FEW035 FEW040CB SCT060 OVC100 22/19 Q1017
Loading
Personal Weather Stations






























Interactive Weather Map New forecast layout! Learn more

10-Day Weather Forecast

Advertisements
Track Severe Weather on mobile